This is the latest recevied weather packets stored in our database for station/object C31FR-13. If no packets are shown the sender has not sent any weather packets the latest 10 day(s).
| Time | Temp. | Humidity | Pressure | Rain* | Wind** | Luminosity | Snow |
|---|---|---|---|---|---|---|---|
| 1777873564 | 11.11° C | 98% | 1014.2 hPa | - | - | - | - |
| 1777873262 | 11.11° C | 99% | 1014.1 hPa | - | - | - | - |
| 1777869663 | 11.11° C | 97% | 1013.8 hPa | - | - | - | - |
| 1777869363 | 11.11° C | 98% | 1013.8 hPa | - | - | - | - |
| 1777869063 | 11.11° C | 96% | 1013.8 hPa | - | - | - | - |
| 1777868762 | 11.67° C | 93% | 1013.9 hPa | - | - | - | - |
| 1777868462 | 11.67° C | 91% | 1013.9 hPa | - | - | - | - |
| 1777868163 | 12.22° C | 89% | 1013.8 hPa | - | - | - | - |
| 1777867863 | 11.67° C | 89% | 1013.8 hPa | - | - | - | - |
| 1777867563 | 12.22° C | 89% | 1013.8 hPa | - | - | - | - |
| 1777867263 | 12.22° C | 89% | 1013.8 hPa | - | - | - | - |
| 1777866962 | 11.67° C | 91% | 1013.9 hPa | - | - | - | - |
| 1777866362 | 12.22° C | 89% | 1013.8 hPa | - | - | - | - |
| 1777866062 | 12.78° C | 86% | 1013.8 hPa | - | - | - | - |
| 1777865762 | 12.22° C | 88% | 1013.9 hPa | - | - | - | - |
| 1777865462 | 12.22° C | 90% | 1013.9 hPa | - | - | - | - |
| 1777865163 | 12.22° C | 89% | 1013.9 hPa | - | - | - | - |
| 1777864862 | 12.22° C | 91% | 1014 hPa | - | - | - | - |
| 1777864563 | 12.22° C | 87% | 1014 hPa | - | - | - | - |
| 1777864262 | 12.22° C | 89% | 1014.1 hPa | - | - | - | - |
| 1777863962 | 11.67° C | 90% | 1014.1 hPa | - | - | - | - |
| 1777863663 | 11.67° C | 89% | 1014.1 hPa | - | - | - | - |
| 1777863362 | 12.22° C | 86% | 1014 hPa | - | - | - | - |
| 1777863063 | 12.22° C | 87% | 1014 hPa | - | - | - | - |
| 1777862462 | 12.22° C | 88% | 1014 hPa | - | - | - | - |
* Rain since midnight (hover to see other rain measurements)
** Current wind speed in m/s (hover to see current wind gust speed)